Decoded Metar for KESN (EASTON/NEWNAM in MD, USA) (IATA:ESN) | Meteo·Mobile Aviation Weather
aviador You're here:

KESN Decoded Metar

EASTON/NEWNAM in MD, USA
Report Time2019-02-21 23:55:00
UTC Time2019-02-22 00:35:16
Flight Rules vfr VFR
Wind210° at 05 kt
W.Decomp.*RWY 22: 5.0 kt HW 0 kt LCW
RWY 15: 1.7 kt HW 4.7 kt RCW
W.Rank210° ranks 2
Current wind is below 210° avg. (7.9)
Visibility9999 m
Phenomena:N/A
Clouds:N/A
Expected CloudBase > 1,600 ft AGL from Temp-Dew spread
CeilingNone
Temp09°C (ISA -6)
Dew Point05°C (76% RH)
AAT6.1°C
QNH1021 hPa
Density Alt-781 ft
Elevation72 ft
Report Wrong Elevation
Raw Report
KESN 212355Z 21005KT 10SM SKC 09/05 A3015=

Extra information for KESN:More info

Metar Taf Metar & Taf Last 4 Metars F.Rules Stats Wind Profile Meteogram Temp Stats Airport Information Weather charts Add Link Nearby VenuesMetar ALERT Operation Metar Decoded Social comments

AIRNAV info for KESN